Time;durP1;ratioP1;P1;durP2;ratioP2;P2;SDS_P1;SDS_P2;PMS_P1;PMS_P2;Temp;Humidity;BMP_temperature;BMP_pressure;BME280_temperature;BME280_humidity;BME280_pressure;Samples;Min_cycle;Max_cycle;Signal;HPM_P1;HPM_P2
2021/11/05 00:00:56;;;;;;;3.95;2.47;;;6.30;99.90;;;;;;5016710;28;20025;-84
2021/11/05 00:03:22;;;;;;;3.53;2.50;;;6.40;99.90;;;;;;5016626;28;20029;-84
2021/11/05 00:05:48;;;;;;;3.40;2.65;;;6.50;99.90;;;;;;5016578;28;20116;-84
2021/11/05 00:08:14;;;;;;;2.85;2.58;;;6.50;99.90;;;;;;5016450;28;20072;-84
2021/11/05 00:10:43;;;;;;;3.00;2.38;;;6.50;99.90;;;;;;5016588;28;20037;-84
2021/11/05 00:13:10;;;;;;;3.63;2.40;;;6.50;99.90;;;;;;5016506;28;20032;-84
2021/11/05 00:15:36;;;;;;;5.93;2.70;;;6.60;99.90;;;;;;5016508;28;20029;-84
2021/11/05 00:18:02;;;;;;;3.80;2.33;;;6.60;99.90;;;;;;5016363;28;20030;-84
2021/11/05 00:20:28;;;;;;;4.93;2.53;;;6.60;99.90;;;;;;5033920;28;20375;-84
2021/11/05 00:22:55;;;;;;;3.88;2.40;;;6.60;99.90;;;;;;5016294;28;20030;-84
2021/11/05 00:25:21;;;;;;;3.85;2.60;;;6.60;99.90;;;;;;5016237;28;20029;-84
2021/11/05 00:27:47;;;;;;;4.70;2.17;;;6.60;99.90;;;;;;5016141;28;20060;-84
2021/11/05 00:30:13;;;;;;;3.38;2.40;;;6.50;99.90;;;;;;5015280;28;20022;-84
2021/11/05 00:32:40;;;;;;;5.50;2.30;;;6.60;99.90;;;;;;5016224;28;20385;-84
2021/11/05 00:35:07;;;;;;;5.90;2.22;;;6.70;99.90;;;;;;5016677;28;20053;-84
2021/11/05 00:37:33;;;;;;;2.55;2.15;;;6.70;99.90;;;;;;5016075;28;20501;-84
2021/11/05 00:39:59;;;;;;;2.20;2.00;;;6.70;99.90;;;;;;5016744;28;20026;-84
2021/11/05 00:42:25;;;;;;;2.60;2.05;;;6.70;99.90;;;;;;5018701;28;20040;-83
2021/11/05 00:44:50;;;;;;;3.25;2.10;;;6.70;99.90;;;;;;5016852;28;20613;-84
2021/11/05 00:47:17;;;;;;;2.65;1.85;;;6.70;99.90;;;;;;5016233;28;20026;-84
2021/11/05 00:49:43;;;;;;;3.20;2.40;;;6.60;99.90;;;;;;5033675;28;20027;-85
2021/11/05 00:52:09;;;;;;;3.03;2.08;;;6.60;99.90;;;;;;5015866;28;20393;-84
2021/11/05 00:54:35;;;;;;;7.05;2.22;;;6.50;99.90;;;;;;5033472;28;20025;-83
2021/11/05 00:57:01;;;;;;;3.35;2.58;;;6.60;99.90;;;;;;5015715;28;20040;-84
2021/11/05 00:59:26;;;;;;;5.38;2.40;;;6.60;99.90;;;;;;5015717;28;20025;-84
2021/11/05 01:01:52;;;;;;;2.13;1.90;;;6.60;99.90;;;;;;5015970;28;20473;-84
2021/11/05 01:04:18;;;;;;;3.00;2.15;;;6.60;99.90;;;;;;5033452;28;20075;-84
2021/11/05 01:06:44;;;;;;;3.28;2.47;;;6.60;99.90;;;;;;5033539;28;20539;-84
2021/11/05 01:09:09;;;;;;;3.30;2.35;;;6.60;99.90;;;;;;5015598;28;20021;-84
2021/11/05 01:11:35;;;;;;;4.18;2.38;;;6.50;99.90;;;;;;5015582;28;20446;-83
2021/11/05 01:14:02;;;;;;;3.88;2.20;;;6.50;99.90;;;;;;5015991;28;20108;-83
2021/11/05 01:16:28;;;;;;;3.42;2.55;;;6.50;99.90;;;;;;5015505;28;20025;-84
2021/11/05 01:18:54;;;;;;;2.40;2.20;;;6.50;99.90;;;;;;5015512;28;20033;-84
2021/11/05 01:21:20;;;;;;;3.05;2.53;;;6.50;99.90;;;;;;5032959;28;20045;-84
2021/11/05 01:23:46;;;;;;;3.40;2.92;;;6.40;99.90;;;;;;5015377;28;20389;-84
2021/11/05 01:26:11;;;;;;;4.18;2.53;;;6.40;99.90;;;;;;5015450;28;20451;-84
2021/11/05 01:28:38;;;;;;;3.60;2.03;;;6.50;99.90;;;;;;5015287;28;20072;-83
2021/11/05 01:31:04;;;;;;;2.72;2.30;;;6.60;99.90;;;;;;5015445;28;20033;-84
2021/11/05 01:33:30;;;;;;;2.33;1.90;;;6.60;99.90;;;;;;5033135;28;20033;-84
2021/11/05 01:35:55;;;;;;;3.30;2.42;;;6.60;99.90;;;;;;5015369;28;20481;-83
2021/11/05 01:38:21;;;;;;;2.75;2.00;;;6.60;99.90;;;;;;5033222;28;20032;-83
2021/11/05 01:40:47;;;;;;;2.40;2.20;;;6.70;99.90;;;;;;5015321;28;20033;-84
2021/11/05 01:43:14;;;;;;;2.95;2.03;;;6.70;99.90;;;;;;5018794;28;20029;-84
2021/11/05 01:45:41;;;;;;;3.13;1.88;;;6.70;99.90;;;;;;5019303;28;20025;-84
2021/11/05 01:48:07;;;;;;;2.42;1.88;;;6.70;99.90;;;;;;5037155;28;20025;-83
2021/11/05 01:50:33;;;;;;;3.17;2.33;;;6.70;99.90;;;;;;5019186;28;20496;-84
2021/11/05 01:53:00;;;;;;;3.75;2.20;;;6.70;99.90;;;;;;5019050;28;20031;-84
2021/11/05 01:55:27;;;;;;;2.47;1.88;;;6.70;99.90;;;;;;5019134;28;20025;-84
2021/11/05 01:57:53;;;;;;;2.20;1.80;;;6.80;99.90;;;;;;5018914;28;20033;-84
2021/11/05 02:00:22;;;;;;;4.70;2.00;;;6.80;99.90;;;;;;5019006;28;20477;-84
2021/11/05 02:02:50;;;;;;;2.92;2.33;;;6.70;99.90;;;;;;5018985;28;20389;-83
2021/11/05 02:05:16;;;;;;;3.25;1.90;;;6.70;99.90;;;;;;5019096;28;20036;-84
2021/11/05 02:07:52;;;;;;;2.17;1.90;;;6.60;99.90;;;;;;5018788;28;20120;-84
2021/11/05 02:10:23;;;;;;;2.60;2.05;;;6.60;99.90;;;;;;5019635;28;20414;-85
2021/11/05 02:12:49;;;;;;;3.10;2.10;;;6.40;99.90;;;;;;5018780;28;20026;-84
2021/11/05 02:15:16;;;;;;;2.15;1.95;;;6.40;99.90;;;;;;5036473;28;20022;-84
2021/11/05 02:17:44;;;;;;;2.58;1.83;;;6.30;99.90;;;;;;5018660;28;20033;-84
2021/11/05 02:20:13;;;;;;;1.50;1.35;;;6.30;99.90;;;;;;5018536;28;20393;-84
2021/11/05 02:22:39;;;;;;;2.80;2.40;;;6.40;99.90;;;;;;5036386;28;20033;-83
2021/11/05 02:25:06;;;;;;;2.05;1.85;;;6.40;99.90;;;;;;5018472;28;20030;-84
2021/11/05 02:27:32;;;;;;;3.95;2.28;;;6.50;99.90;;;;;;5018450;28;20040;-84
2021/11/05 02:30:00;;;;;;;4.13;2.13;;;6.40;99.90;;;;;;5036161;28;20030;-84
2021/11/05 02:32:26;;;;;;;2.20;2.00;;;6.50;99.90;;;;;;5018408;28;20021;-83
2021/11/05 02:34:52;;;;;;;3.40;2.15;;;6.40;99.90;;;;;;5018361;28;20029;-84
2021/11/05 02:37:25;;;;;;;2.67;2.10;;;6.50;99.90;;;;;;5018256;28;20091;-84
2021/11/05 02:39:51;;;;;;;3.10;1.73;;;6.50;99.90;;;;;;5018317;28;20041;-84
2021/11/05 02:42:17;;;;;;;2.67;1.85;;;6.50;99.90;;;;;;5018181;28;20029;-85
2021/11/05 02:44:43;;;;;;;3.50;2.17;;;6.60;99.90;;;;;;5018208;28;20033;-84
2021/11/05 02:47:24;;;;;;;1.90;1.70;;;6.70;99.90;;;;;;5018274;28;20033;-84
2021/11/05 02:49:51;;;;;;;1.83;1.52;;;6.70;99.90;;;;;;5020903;28;20068;-85
2021/11/05 02:52:17;;;;;;;2.10;1.60;;;6.80;99.90;;;;;;5038302;28;20394;-84
2021/11/05 02:54:43;;;;;;;2.97;1.80;;;6.80;99.90;;;;;;5017098;28;20045;-83
2021/11/05 02:57:10;;;;;;;2.30;1.60;;;6.70;99.90;;;;;;5017938;28;20025;-84
2021/11/05 02:59:36;;;;;;;3.90;2.08;;;6.40;99.90;;;;;;5017881;28;20211;-84
2021/11/05 03:02:03;;;;;;;2.45;1.88;;;6.40;99.90;;;;;;5017935;28;20029;-84
2021/11/05 03:04:29;;;;;;;1.83;1.67;;;6.50;99.90;;;;;;5017728;28;20481;-85
2021/11/05 03:07:00;;;;;;;2.97;1.80;;;6.50;99.90;;;;;;5017643;28;20033;-84
2021/11/05 03:09:32;;;;;;;2.50;1.70;;;6.60;99.90;;;;;;5018240;28;20409;-84
2021/11/05 03:11:58;;;;;;;4.75;1.77;;;6.70;99.90;;;;;;5017685;28;20095;-84
2021/11/05 03:14:24;;;;;;;2.53;1.88;;;6.60;99.90;;;;;;5035343;28;20048;-84
2021/11/05 03:16:50;;;;;;;2.13;1.60;;;6.60;99.90;;;;;;5017559;28;20021;-85
2021/11/05 03:19:15;;;;;;;1.80;1.65;;;6.50;99.90;;;;;;5035213;28;20079;-84
2021/11/05 03:21:41;;;;;;;2.17;1.63;;;6.50;99.90;;;;;;5017331;28;20048;-84
2021/11/05 03:24:07;;;;;;;2.25;1.90;;;6.60;99.90;;;;;;5017434;28;20551;-84
2021/11/05 03:26:33;;;;;;;1.45;1.35;;;6.60;99.90;;;;;;5017403;28;20021;-84
2021/11/05 03:28:59;;;;;;;2.50;1.75;;;6.60;99.90;;;;;;5017599;28;20060;-84
2021/11/05 03:31:25;;;;;;;1.60;1.50;;;6.70;99.90;;;;;;5017263;28;20068;-84
2021/11/05 03:33:50;;;;;;;2.47;1.73;;;6.80;99.90;;;;;;5017295;28;20042;-84
2021/11/05 03:36:16;;;;;;;2.40;1.58;;;6.70;99.90;;;;;;5018023;28;20108;-85
2021/11/05 03:38:42;;;;;;;3.33;2.05;;;6.70;99.90;;;;;;5017078;28;20477;-84
2021/11/05 03:41:08;;;;;;;2.00;1.85;;;6.50;99.90;;;;;;5017121;28;20025;-84
2021/11/05 03:43:34;;;;;;;2.78;1.60;;;6.50;99.90;;;;;;5017970;28;20133;-84
2021/11/05 03:46:01;;;;;;;1.85;1.63;;;6.50;99.90;;;;;;5034755;28;20017;-84
2021/11/05 03:48:27;;;;;;;2.03;1.60;;;6.40;99.90;;;;;;5016888;28;20056;-84
2021/11/05 03:50:53;;;;;;;1.98;1.75;;;6.40;99.90;;;;;;5034664;28;20047;-84
2021/11/05 03:53:18;;;;;;;3.13;1.45;;;6.40;99.90;;;;;;5016879;28;20025;-84
2021/11/05 03:55:44;;;;;;;1.90;1.70;;;6.40;99.90;;;;;;5016832;28;20030;-84
2021/11/05 03:58:10;;;;;;;5.65;1.33;;;6.40;99.90;;;;;;5016798;28;20030;-84
2021/11/05 04:00:36;;;;;;;3.03;1.40;;;6.60;99.90;;;;;;5016759;28;20385;-84
2021/11/05 04:03:02;;;;;;;1.40;1.30;;;6.60;99.90;;;;;;5016676;28;20104;-84
2021/11/05 04:05:28;;;;;;;1.67;1.40;;;6.60;99.90;;;;;;5016482;28;20076;-84
2021/11/05 04:07:53;;;;;;;1.50;1.40;;;6.70;99.90;;;;;;5016608;28;20030;-84
2021/11/05 04:10:19;;;;;;;2.03;1.55;;;6.60;99.90;;;;;;5034298;28;20417;-84
2021/11/05 04:12:45;;;;;;;2.17;1.30;;;6.60;99.90;;;;;;5016518;28;20039;-84
2021/11/05 04:15:12;;;;;;;1.45;1.35;;;6.60;99.90;;;;;;5016902;28;20051;-84
2021/11/05 04:17:38;;;;;;;3.88;1.45;;;6.60;99.90;;;;;;5016426;28;20025;-84
2021/11/05 04:20:04;;;;;;;1.75;1.17;;;6.60;99.90;;;;;;5016616;28;20527;-84
2021/11/05 04:22:30;;;;;;;5.07;1.20;;;6.70;99.90;;;;;;5016396;28;20061;-84
2021/11/05 04:24:56;;;;;;;1.48;1.15;;;6.70;99.90;;;;;;5016320;28;20441;-84
2021/11/05 04:27:22;;;;;;;2.75;1.02;;;6.70;99.90;;;;;;4999943;28;20033;-84
2021/11/05 04:29:48;;;;;;;2.17;1.23;;;6.70;99.90;;;;;;5033982;28;20040;-84
2021/11/05 04:32:14;;;;;;;1.90;1.40;;;6.70;99.90;;;;;;5016226;28;20446;-84
2021/11/05 04:34:39;;;;;;;2.08;1.10;;;6.80;99.90;;;;;;5016092;28;20116;-84
2021/11/05 04:37:05;;;;;;;4.22;1.20;;;6.90;99.90;;;;;;5016100;28;20021;-84
2021/11/05 04:39:31;;;;;;;1.30;1.05;;;6.90;99.90;;;;;;5016086;28;20037;-84
2021/11/05 04:41:57;;;;;;;5.13;1.30;;;6.80;99.90;;;;;;5015999;28;20143;-84
2021/11/05 04:44:22;;;;;;;1.40;1.30;;;6.80;99.90;;;;;;5015883;28;20025;-84
2021/11/05 04:46:49;;;;;;;1.52;1.27;;;6.70;99.90;;;;;;5015863;28;20037;-84
2021/11/05 04:49:14;;;;;;;1.40;1.30;;;6.70;99.90;;;;;;5015915;28;20033;-84
2021/11/05 04:51:40;;;;;;;2.42;1.55;;;6.60;99.90;;;;;;5015910;28;20021;-84
2021/11/05 04:54:06;;;;;;;1.38;1.20;;;6.60;99.90;;;;;;5015818;28;20382;-84
2021/11/05 04:56:34;;;;;;;1.73;1.63;;;6.80;99.90;;;;;;5017166;28;20037;-84
2021/11/05 04:59:00;;;;;;;2.65;1.40;;;6.80;99.90;;;;;;5017597;28;20025;-84
2021/11/05 05:01:25;;;;;;;4.82;1.40;;;6.70;99.90;;;;;;5015983;28;20030;-84
2021/11/05 05:03:51;;;;;;;1.60;1.20;;;6.70;99.90;;;;;;5033532;28;20108;-84
2021/11/05 05:06:17;;;;;;;1.90;1.17;;;6.80;99.90;;;;;;5015795;28;20025;-85
2021/11/05 05:08:43;;;;;;;1.65;1.38;;;6.80;99.90;;;;;;5015875;28;20116;-84
2021/11/05 05:11:09;;;;;;;2.88;2.47;;;6.80;99.90;;;;;;5015631;28;20036;-83
2021/11/05 05:13:34;;;;;;;3.35;2.50;;;6.70;99.90;;;;;;5015567;28;20018;-84
2021/11/05 05:16:00;;;;;;;3.33;1.65;;;6.70;99.90;;;;;;5015111;28;20028;-84
2021/11/05 05:18:26;;;;;;;2.33;1.95;;;6.70;99.90;;;;;;5033162;28;20025;-84
2021/11/05 05:20:52;;;;;;;1.90;1.70;;;6.70;99.90;;;;;;5015266;28;20124;-84
2021/11/05 05:23:18;;;;;;;2.88;1.60;;;6.70;99.90;;;;;;5015417;28;20036;-84
2021/11/05 05:25:43;;;;;;;1.70;1.30;;;6.70;99.90;;;;;;5033197;28;20025;-84
2021/11/05 05:28:09;;;;;;;2.90;1.85;;;6.70;99.90;;;;;;5015597;28;20401;-84
2021/11/05 05:30:35;;;;;;;2.00;1.67;;;6.80;99.90;;;;;;5015468;28;20053;-84
2021/11/05 05:33:01;;;;;;;3.08;1.83;;;6.70;99.90;;;;;;5016232;28;20072;-84
2021/11/05 05:35:27;;;;;;;2.03;1.55;;;6.70;99.90;;;;;;5015351;28;20022;-84
2021/11/05 05:37:54;;;;;;;3.42;1.98;;;6.70;99.90;;;;;;5015341;28;20508;-84
2021/11/05 05:40:21;;;;;;;2.17;1.60;;;6.70;99.90;;;;;;5033028;28;20053;-84
2021/11/05 05:42:47;;;;;;;2.42;1.83;;;6.70;99.90;;;;;;5015321;28;20052;-84
2021/11/05 05:45:14;;;;;;;2.58;1.77;;;6.60;99.90;;;;;;5015259;28;20106;-84
2021/11/05 05:47:40;;;;;;;2.53;1.88;;;6.60;99.90;;;;;;5015221;28;20026;-84
2021/11/05 05:50:10;;;;;;;1.95;1.50;;;6.60;99.90;;;;;;5015242;28;20037;-84
2021/11/05 05:52:36;;;;;;;2.67;2.10;;;6.70;99.90;;;;;;5015220;28;20029;-84
2021/11/05 05:55:04;;;;;;;1.63;1.30;;;6.70;99.90;;;;;;5015150;28;20028;-84
2021/11/05 05:57:30;;;;;;;2.78;1.48;;;6.80;99.90;;;;;;5015055;28;20541;-84
2021/11/05 05:59:56;;;;;;;3.70;3.30;;;6.70;99.90;;;;;;5015316;28;20110;-84
2021/11/05 06:02:21;;;;;;;3.58;2.53;;;6.70;99.90;;;;;;5033167;28;20500;-85
2021/11/05 06:04:47;;;;;;;2.85;2.08;;;6.70;99.90;;;;;;5015076;28;20025;-84
2021/11/05 06:07:13;;;;;;;2.40;1.75;;;6.70;99.90;;;;;;5015049;28;20120;-85
2021/11/05 06:09:39;;;;;;;2.25;1.50;;;6.80;99.90;;;;;;5014958;28;20040;-84
2021/11/05 06:12:05;;;;;;;2.00;1.58;;;6.80;99.90;;;;;;5014936;28;20079;-84
2021/11/05 06:14:32;;;;;;;3.33;1.90;;;6.70;99.90;;;;;;5015002;28;20378;-84
2021/11/05 06:16:57;;;;;;;2.92;1.67;;;6.70;99.90;;;;;;5014957;28;20052;-84
2021/11/05 06:19:23;;;;;;;3.30;1.70;;;6.70;99.90;;;;;;5014917;28;20053;-84
2021/11/05 06:21:49;;;;;;;2.30;1.83;;;6.70;99.90;;;;;;5032909;28;20037;-84
2021/11/05 06:24:15;;;;;;;3.78;2.05;;;6.70;99.90;;;;;;5014847;28;20021;-84
2021/11/05 06:26:41;;;;;;;2.10;1.75;;;6.70;99.90;;;;;;5032532;28;20032;-84
2021/11/05 06:29:06;;;;;;;1.90;1.60;;;6.70;99.90;;;;;;5017710;28;20030;-84
2021/11/05 06:31:33;;;;;;;1.70;1.58;;;6.90;99.90;;;;;;5018361;28;20021;-84
2021/11/05 06:34:01;;;;;;;2.85;1.50;;;6.80;99.90;;;;;;5018420;28;20366;-84
2021/11/05 06:36:27;;;;;;;3.42;1.67;;;6.70;99.90;;;;;;5018343;28;20366;-84
2021/11/05 06:38:53;;;;;;;1.98;1.70;;;6.70;99.90;;;;;;5018235;28;20428;-84
2021/11/05 06:41:20;;;;;;;2.85;1.90;;;6.70;99.90;;;;;;5018150;28;20120;-84
2021/11/05 06:43:45;;;;;;;2.47;1.88;;;6.80;99.90;;;;;;5018151;28;20081;-85
2021/11/05 06:46:12;;;;;;;3.38;2.67;;;6.80;99.90;;;;;;5035946;28;20030;-84
2021/11/05 06:48:37;;;;;;;3.53;2.83;;;6.80;99.90;;;;;;5018321;28;20030;-84
2021/11/05 06:51:03;;;;;;;4.43;3.05;;;6.80;99.90;;;;;;5018212;28;20504;-84
2021/11/05 06:53:29;;;;;;;6.05;3.10;;;6.90;99.90;;;;;;5017959;28;20045;-84
2021/11/05 06:55:55;;;;;;;8.57;4.63;;;6.90;99.90;;;;;;5017844;28;20021;-84
2021/11/05 06:58:21;;;;;;;5.00;3.40;;;6.90;99.90;;;;;;5017852;28;20069;-84
2021/11/05 07:00:48;;;;;;;5.22;3.55;;;6.90;99.90;;;;;;5018796;28;20045;-83
2021/11/05 07:03:15;;;;;;;3.67;2.50;;;6.90;99.90;;;;;;5020531;28;20094;-83
2021/11/05 07:05:41;;;;;;;2.75;1.95;;;7.00;99.90;;;;;;5019467;28;20397;-84
2021/11/05 07:08:07;;;;;;;4.03;2.20;;;7.00;99.90;;;;;;5017773;28;20028;-84
2021/11/05 07:10:34;;;;;;;2.40;1.90;;;7.00;99.90;;;;;;5017762;28;20022;-85
2021/11/05 07:12:59;;;;;;;3.90;1.52;;;7.00;99.90;;;;;;5017695;28;20017;-84
2021/11/05 07:15:25;;;;;;;3.60;1.95;;;7.00;99.90;;;;;;5017621;28;20168;-84
2021/11/05 07:17:51;;;;;;;2.85;2.30;;;7.10;99.90;;;;;;5017533;28;20034;-84
2021/11/05 07:20:17;;;;;;;4.45;2.92;;;7.00;99.90;;;;;;5035024;28;20385;-84
2021/11/05 07:22:45;;;;;;;3.65;2.50;;;7.10;99.90;;;;;;5017583;28;20034;-84
2021/11/05 07:25:13;;;;;;;2.22;1.73;;;7.10;99.90;;;;;;5017392;28;20485;-84
2021/11/05 07:27:40;;;;;;;3.33;2.08;;;7.20;99.90;;;;;;5017291;28;20068;-84
2021/11/05 07:30:08;;;;;;;2.38;1.67;;;7.20;99.90;;;;;;5017313;28;20079;-84
2021/11/05 07:32:36;;;;;;;3.20;1.77;;;7.20;99.90;;;;;;5018813;28;20109;-84
2021/11/05 07:35:03;;;;;;;1.73;1.45;;;7.20;99.90;;;;;;5035626;28;20112;-84
2021/11/05 07:37:29;;;;;;;2.05;1.30;;;7.20;99.90;;;;;;5017161;28;20063;-84
2021/11/05 07:39:56;;;;;;;2.17;1.60;;;7.30;99.90;;;;;;5016559;28;20029;-84
2021/11/05 07:42:22;;;;;;;2.67;1.90;;;7.40;99.90;;;;;;5016997;28;20443;-84
2021/11/05 07:44:48;;;;;;;11.40;4.15;;;7.30;99.90;;;;;;5016993;28;20033;-84
2021/11/05 07:47:21;;;;;;;3.03;1.90;;;7.30;99.90;;;;;;5034683;28;20057;-84
2021/11/05 07:49:47;;;;;;;2.95;1.98;;;7.30;99.90;;;;;;5016968;28;20025;-84
2021/11/05 07:52:13;;;;;;;2.58;1.67;;;7.30;99.90;;;;;;5034917;28;20021;-84
2021/11/05 07:54:38;;;;;;;2.42;1.65;;;7.30;99.90;;;;;;5016761;28;20070;-84
2021/11/05 07:57:04;;;;;;;1.60;1.30;;;7.30;99.90;;;;;;5034773;28;20401;-84
2021/11/05 07:59:30;;;;;;;4.32;1.77;;;7.40;99.90;;;;;;5016991;28;20025;-84
2021/11/05 08:01:56;;;;;;;2.47;1.80;;;7.30;99.90;;;;;;5016622;28;20068;-84
2021/11/05 08:04:21;;;;;;;1.88;1.42;;;7.30;99.90;;;;;;5016661;28;20130;-84
2021/11/05 08:06:47;;;;;;;2.88;1.52;;;7.30;99.90;;;;;;5016554;28;20040;-84
2021/11/05 08:09:13;;;;;;;5.13;1.55;;;7.40;99.90;;;;;;5034240;28;20029;-83
2021/11/05 08:11:39;;;;;;;3.50;1.50;;;7.40;99.90;;;;;;5016469;28;20389;-84
2021/11/05 08:14:04;;;;;;;2.65;1.50;;;7.40;99.90;;;;;;5034235;28;20029;-84
2021/11/05 08:16:30;;;;;;;3.30;1.30;;;7.50;99.90;;;;;;5034524;28;20018;-84
2021/11/05 08:18:56;;;;;;;1.30;1.10;;;7.50;99.90;;;;;;5016422;28;20032;-84
2021/11/05 08:21:22;;;;;;;2.03;1.40;;;7.60;99.90;;;;;;5012858;28;20050;-84
2021/11/05 08:23:48;;;;;;;4.88;1.50;;;7.50;99.90;;;;;;5013079;28;20439;-84
2021/11/05 08:26:14;;;;;;;1.50;1.23;;;7.50;99.90;;;;;;5013012;28;20026;-84
2021/11/05 08:28:41;;;;;;;1.55;1.27;;;7.60;99.90;;;;;;5012857;28;20029;-84
2021/11/05 08:31:08;;;;;;;1.90;1.25;;;7.60;99.90;;;;;;5013057;28;20030;-84
2021/11/05 08:33:35;;;;;;;3.45;1.75;;;7.70;99.90;;;;;;5012966;28;20152;-83
2021/11/05 08:36:01;;;;;;;1.83;1.20;;;7.80;99.90;;;;;;5014164;28;20022;-84
2021/11/05 08:38:27;;;;;;;2.20;1.08;;;7.90;99.90;;;;;;5012865;28;20033;-83
2021/11/05 08:40:54;;;;;;;2.30;0.90;;;8.00;99.90;;;;;;5013406;28;20076;-83
2021/11/05 08:43:24;;;;;;;1.80;1.17;;;8.00;99.90;;;;;;5014636;28;20386;-84
2021/11/05 08:45:51;;;;;;;1.02;0.90;;;8.10;99.90;;;;;;5012787;28;20022;-83
2021/11/05 08:48:19;;;;;;;1.30;1.05;;;8.20;99.90;;;;;;5013886;28;20040;-84
2021/11/05 08:50:45;;;;;;;2.13;1.20;;;8.30;99.90;;;;;;5013405;28;20028;-83
2021/11/05 08:53:11;;;;;;;1.98;1.33;;;8.30;99.90;;;;;;5012284;28;20510;-84
2021/11/05 08:55:38;;;;;;;1.67;0.95;;;8.40;99.90;;;;;;5013801;28;20029;-83
2021/11/05 08:58:06;;;;;;;3.40;1.15;;;8.30;99.90;;;;;;5012396;28;20120;-84
2021/11/05 09:00:33;;;;;;;2.15;1.00;;;8.40;99.90;;;;;;5012808;28;20034;-83
2021/11/05 09:03:01;;;;;;;1.60;1.00;;;8.40;99.90;;;;;;5013869;28;20099;-85
2021/11/05 09:05:27;;;;;;;1.10;0.80;;;8.30;99.90;;;;;;5017737;28;20037;-85
2021/11/05 09:07:53;;;;;;;1.65;0.82;;;8.30;99.90;;;;;;5014611;28;20026;-83
2021/11/05 09:10:19;;;;;;;3.13;1.45;;;8.20;99.90;;;;;;5013937;28;20022;-84
2021/11/05 09:12:45;;;;;;;1.65;1.13;;;8.10;99.90;;;;;;5013645;28;20026;-84
2021/11/05 09:15:15;;;;;;;1.00;0.95;;;8.10;99.90;;;;;;4996001;28;20034;-80
2021/11/05 09:17:41;;;;;;;1.38;1.00;;;8.20;99.90;;;;;;5012248;28;20224;-80
2021/11/05 09:20:10;;;;;;;2.28;0.80;;;8.40;99.90;;;;;;5014565;28;20053;-80
2021/11/05 09:22:36;;;;;;;1.10;0.90;;;8.50;99.90;;;;;;5015442;28;20030;-80
2021/11/05 09:25:05;;;;;;;2.10;1.20;;;8.50;99.90;;;;;;5033080;28;20048;-81
2021/11/05 09:27:31;;;;;;;2.28;1.20;;;8.50;99.90;;;;;;5015333;28;20461;-80
2021/11/05 09:29:57;;;;;;;4.05;1.58;;;8.40;99.90;;;;;;5015360;28;20121;-80
2021/11/05 09:32:24;;;;;;;1.50;1.20;;;8.40;99.90;;;;;;5015285;28;20112;-81
2021/11/05 09:34:55;;;;;;;1.75;0.95;;;8.40;99.90;;;;;;5015225;28;20025;-81
2021/11/05 09:37:21;;;;;;;3.00;1.08;;;8.40;99.90;;;;;;5015274;28;20032;-81
2021/11/05 09:39:47;;;;;;;2.50;1.50;;;8.40;99.90;;;;;;5015261;28;20032;-80
2021/11/05 09:42:15;;;;;;;3.90;2.00;;;8.30;99.90;;;;;;5015240;28;20029;-80
2021/11/05 09:44:41;;;;;;;4.75;1.73;;;8.40;99.90;;;;;;5015445;28;20025;-80
2021/11/05 09:47:07;;;;;;;2.22;1.38;;;8.50;99.90;;;;;;5015112;28;20051;-81
2021/11/05 09:49:34;;;;;;;2.40;1.20;;;8.60;99.90;;;;;;5032870;28;20018;-81
2021/11/05 09:52:02;;;;;;;1.48;1.20;;;8.70;99.90;;;;;;5032831;28;20097;-80
2021/11/05 09:54:31;;;;;;;1.60;1.17;;;8.90;99.90;;;;;;5015292;28;20029;-80
2021/11/05 09:56:57;;;;;;;1.40;1.25;;;8.90;99.90;;;;;;5015255;28;20033;-80
2021/11/05 09:59:23;;;;;;;1.90;1.48;;;9.00;99.90;;;;;;5015092;28;20120;-80
2021/11/05 10:01:49;;;;;;;1.50;1.27;;;9.20;99.90;;;;;;5015023;28;20026;-80
2021/11/05 10:04:15;;;;;;;1.60;1.30;;;9.30;99.90;;;;;;5036252;28;20044;-80
2021/11/05 10:07:16;;;;;;;4.13;1.23;;;9.40;99.90;;;;;;5018741;28;20025;-80
2021/11/05 10:09:44;;;;;;;1.67;1.20;;;9.30;99.90;;;;;;4937424;29;20032;-81
2021/11/05 10:12:17;;;;;;;1.73;1.23;;;9.30;99.90;;;;;;4999777;28;20033;-80
2021/11/05 10:14:45;;;;;;;1.25;0.90;;;9.20;99.90;;;;;;5018775;28;20022;-81
2021/11/05 10:17:15;;;;;;;1.90;0.98;;;9.10;99.90;;;;;;5018663;28;20033;-80
2021/11/05 10:19:47;;;;;;;2.00;1.30;;;9.20;99.90;;;;;;5018906;28;20018;-86
2021/11/05 10:22:32;;;;;;;3.08;1.20;;;9.10;99.90;;;;;;5018636;28;20477;-83
2021/11/05 10:25:16;;;;;;;;;;;9.20;99.90;;;;;;5019512;28;20029;-86
2021/11/05 10:27:42;;;;;;;2.93;1.30;;;9.20;99.90;;;;;;5018508;28;20007;-85
2021/11/05 10:30:08;;;;;;;2.33;1.20;;;9.20;99.90;;;;;;5018557;28;20029;-86
2021/11/05 10:32:39;;;;;;;1.60;1.23;;;9.20;99.90;;;;;;5018636;28;20024;-86
2021/11/05 10:35:12;;;;;;;1.58;1.10;;;9.20;99.90;;;;;;5018394;28;20447;-86
2021/11/05 10:37:41;;;;;;;2.03;1.20;;;9.40;99.90;;;;;;5018371;28;20478;-86
2021/11/05 10:40:08;;;;;;;2.83;1.30;;;9.30;99.90;;;;;;5018369;28;20053;-85
2021/11/05 10:42:38;;;;;;;1.40;1.20;;;9.30;99.90;;;;;;5018338;28;20025;-85
2021/11/05 10:45:20;;;;;;;1.50;1.20;;;9.40;99.90;;;;;;5018345;28;20029;-85
2021/11/05 10:47:55;;;;;;;2.42;1.45;;;9.40;99.90;;;;;;5018274;28;20033;-86
2021/11/05 10:50:45;;;;;;;1.20;1.10;;;9.50;99.90;;;;;;5018106;28;20025;-86
2021/11/05 10:53:22;;;;;;;1.50;0.98;;;9.60;99.90;;;;;;5018720;28;20026;-85
2021/11/05 10:55:55;;;;;;;1.85;1.25;;;9.40;99.90;;;;;;5018356;28;20477;-86
2021/11/05 10:58:31;;;;;;;1.50;1.13;;;9.40;99.90;;;;;;5017965;28;20034;-85
2021/11/05 11:01:25;;;;;;;3.75;1.27;;;9.50;99.90;;;;;;5018052;28;20477;-85
2021/11/05 11:03:53;;;;;;;1.70;0.90;;;9.50;99.90;;;;;;5018422;28;20046;-85
2021/11/05 11:06:45;;;;;;;2.17;1.10;;;9.60;99.90;;;;;;5021102;28;20040;-80
2021/11/05 11:09:17;;;;;;;1.52;1.08;;;9.80;99.90;;;;;;5020401;28;20060;-84
2021/11/05 11:11:45;;;;;;;4.40;1.55;;;9.90;99.90;;;;;;5018243;28;20030;-85
2021/11/05 11:14:17;;;;;;;1.30;1.02;;;9.90;99.90;;;;;;5016920;28;20022;-85
2021/11/05 11:16:49;;;;;;;2.33;1.63;;;9.90;99.90;;;;;;5017906;28;20036;-84
2021/11/05 11:19:21;;;;;;;3.10;1.45;;;9.90;99.90;;;;;;5017693;28;20031;-85
2021/11/05 11:21:46;;;;;;;2.42;2.20;;;9.90;99.90;;;;;;5014124;28;20506;-85
2021/11/05 11:24:16;;;;;;;2.20;1.70;;;9.70;99.90;;;;;;5014176;28;20022;-85
2021/11/05 11:26:44;;;;;;;2.80;2.13;;;9.50;99.90;;;;;;5014091;28;20379;-85
2021/11/05 11:29:11;;;;;;;2.70;2.20;;;9.40;99.90;;;;;;5014044;28;20034;-84
2021/11/05 11:31:38;;;;;;;2.47;1.80;;;9.40;99.90;;;;;;5014223;28;20091;-85
2021/11/05 11:34:06;;;;;;;2.50;2.03;;;9.20;99.90;;;;;;5013962;28;20030;-84
2021/11/05 11:36:34;;;;;;;2.28;1.90;;;9.20;99.90;;;;;;5014133;28;20150;-84
2021/11/05 11:39:04;;;;;;;1.98;1.65;;;9.20;99.90;;;;;;5014013;28;20041;-85
2021/11/05 11:41:33;;;;;;;2.53;1.30;;;9.10;99.90;;;;;;4997596;28;20029;-85
2021/11/05 11:44:01;;;;;;;2.08;1.73;;;9.00;99.90;;;;;;4998303;28;20037;-85
2021/11/05 11:46:28;;;;;;;2.92;2.40;;;9.00;99.90;;;;;;5014965;28;20057;-86
2021/11/05 11:48:56;;;;;;;2.75;2.22;;;9.00;99.90;;;;;;5014870;28;20022;-85
2021/11/05 11:51:33;;;;;;;2.63;2.22;;;9.00;99.90;;;;;;5013877;28;20068;-85
2021/11/05 11:54:17;;;;;;;3.03;2.20;;;9.10;99.90;;;;;;5013738;28;20041;-85
2021/11/05 11:56:44;;;;;;;2.95;2.38;;;9.30;99.90;;;;;;5013817;28;20386;-86
2021/11/05 11:59:12;;;;;;;2.90;2.00;;;9.30;99.90;;;;;;5014882;28;20104;-86
2021/11/05 12:01:41;;;;;;;3.90;2.70;;;9.30;99.90;;;;;;5013377;28;20441;-85
2021/11/05 12:04:11;;;;;;;3.45;2.70;;;9.20;99.90;;;;;;5013476;28;20029;-87
2021/11/05 12:06:46;;;;;;;2.47;2.20;;;9.20;99.90;;;;;;5013475;28;20033;-86
2021/11/05 12:09:22;;;;;;;3.05;1.95;;;9.30;99.90;;;;;;5013369;28;20104;-85
2021/11/05 12:11:50;;;;;;;2.10;1.85;;;9.60;99.90;;;;;;5013278;28;20049;-85
2021/11/05 12:14:16;;;;;;;2.90;2.20;;;9.60;99.90;;;;;;5013230;28;20028;-85
2021/11/05 12:17:04;;;;;;;2.92;2.28;;;9.70;99.90;;;;;;5013196;28;20464;-86
2021/11/05 12:19:36;;;;;;;2.88;2.00;;;9.50;99.90;;;;;;5013189;28;20033;-85
2021/11/05 12:22:15;;;;;;;4.82;2.30;;;9.60;99.90;;;;;;5012911;28;20053;-85
2021/11/05 12:24:42;;;;;;;3.00;2.70;;;9.60;99.90;;;;;;5013018;28;20025;-84
2021/11/05 12:27:08;;;;;;;3.15;2.83;;;9.50;99.90;;;;;;5014236;28;20030;-85
2021/11/05 12:29:34;;;;;;;2.15;1.90;;;9.50;99.90;;;;;;5013044;28;20506;-85
2021/11/05 12:32:24;;;;;;;3.28;2.15;;;9.50;99.90;;;;;;5012874;28;20026;-85
2021/11/05 12:35:03;;;;;;;2.92;2.35;;;9.60;99.90;;;;;;5012956;28;20025;-85
2021/11/05 12:37:35;;;;;;;3.53;1.50;;;9.70;99.90;;;;;;5016329;28;20026;-85
2021/11/05 12:40:23;;;;;;;2.45;1.60;;;9.70;99.90;;;;;;5017941;28;20446;-86
2021/11/05 12:42:54;;;;;;;2.53;1.85;;;9.90;99.90;;;;;;5013426;28;20022;-85
2021/11/05 12:45:22;;;;;;;1.88;1.67;;;10.00;99.90;;;;;;5013172;28;20125;-86
2021/11/05 12:48:00;;;;;;;4.80;2.40;;;10.00;99.90;;;;;;5012577;28;20117;-86
2021/11/05 12:50:26;;;;;;;2.63;2.20;;;10.10;99.90;;;;;;5012662;28;20041;-84
2021/11/05 12:52:57;;;;;;;5.18;3.28;;;9.90;99.90;;;;;;5012526;28;20389;-81
2021/11/05 12:55:26;;;;;;;2.55;2.15;;;9.90;99.90;;;;;;5012565;28;20022;-81
2021/11/05 12:57:55;;;;;;;1.88;1.63;;;9.90;99.90;;;;;;5012157;28;20068;-81
2021/11/05 13:00:24;;;;;;;3.58;2.33;;;9.80;99.90;;;;;;5012296;28;20093;-81